KMZZ/MZZ METAR and TAF weather

Enter ICAO airport designator
Station Type Date Time Source
KMZZ METAR 2019/10/20 18:35 UTC NOAA

KMZZ 201835Z AUTO 00000KT 10SM OVC050 20/10 A2990 RMK AO2 T02030096


Station Type Date Time Source
KMZZ Decoded METAR 2019/10/20 18:35 UTC NOAA

Station name not available
Oct 20, 2019 - 02:35 PM EDT / 2019.10.20 1835 UTC
Wind: Calm:0
Visibility: 10 mile(s):0
Sky conditions: overcast
Temperature: 68.5 F (20.3 C)
Dew Point: 49.3 F (9.6 C)
Relative Humidity: 50%
Pressure (altimeter): 29.9 in. Hg (1012 hPa)
ob: KMZZ 201835Z AUTO 00000KT 10SM OVC050 20/10 A2990 RMK AO2 T02030096
cycle: 18

Station Type Date Time Source
KMZZ TAF UTC NOAA

Error!

Example: see airport list